Time;durP1;ratioP1;P1;durP2;ratioP2;P2;SDS_P1;SDS_P2;PMS_P1;PMS_P2;Temp;Humidity;BMP_temperature;BMP_pressure;BME280_temperature;BME280_humidity;BME280_pressure;Samples;Min_cycle;Max_cycle;Signal;HPM_P1;HPM_P2
2022/04/16 00:00:06;;;;;;;5.57;2.63;;;;;;;10.91;73.94;94627.69;5004487;28;20346;-90
2022/04/16 00:02:32;;;;;;;6.50;2.60;;;;;;;10.89;72.23;94620.84;5020625;28;20026;-90
2022/04/16 00:04:57;;;;;;;9.90;2.88;;;;;;;10.89;73.81;94622.69;5020536;28;20055;-90
2022/04/16 00:07:23;;;;;;;7.22;2.33;;;;;;;10.83;72.50;94619.28;5004630;28;20398;-91
2022/04/16 00:09:48;;;;;;;14.40;2.47;;;;;;;10.86;71.52;94615.38;5004344;28;20044;-90
2022/04/16 00:12:14;;;;;;;10.68;2.67;;;;;;;10.85;72.71;94608.56;5020440;28;20036;-90
2022/04/16 00:14:39;;;;;;;7.60;2.40;;;;;;;10.92;71.53;94609.06;5020353;28;20029;-90
2022/04/16 00:17:05;;;;;;;3.80;2.03;;;;;;;10.96;71.09;94609.31;5003973;28;20060;-91
2022/04/16 00:19:32;;;;;;;6.43;2.05;;;;;;;10.91;71.56;94611.97;5004095;28;20041;-90
2022/04/16 00:22:00;;;;;;;4.55;2.20;;;;;;;10.83;73.44;94608.00;5004151;28;20116;-89
2022/04/16 00:24:29;;;;;;;4.85;2.13;;;;;;;10.69;74.49;94605.94;5004633;28;20152;-89
2022/04/16 00:26:54;;;;;;;6.20;2.47;;;;;;;10.81;75.52;94595.19;5019651;28;20025;-90
2022/04/16 00:29:20;;;;;;;5.22;2.47;;;;;;;10.71;74.55;94595.97;5020022;28;20029;-89
2022/04/16 00:31:45;;;;;;;8.25;2.63;;;;;;;10.77;75.72;94590.72;5004198;28;20457;-90
2022/04/16 00:34:14;;;;;;;5.78;2.38;;;;;;;10.87;74.27;94591.50;5020045;28;20031;-90
2022/04/16 00:36:43;;;;;;;6.65;2.35;;;;;;;10.71;74.38;94585.50;5020618;28;20025;-89
2022/04/16 00:39:09;;;;;;;5.45;2.40;;;;;;;10.72;72.67;94581.81;5020141;28;20104;-89
2022/04/16 00:41:35;;;;;;;4.22;2.25;;;;;;;10.68;73.64;94585.22;5003951;28;20033;-90
2022/04/16 00:44:00;;;;;;;8.57;2.65;;;;;;;10.72;73.49;94584.44;5019854;28;20083;-90
2022/04/16 00:46:26;;;;;;;5.45;2.30;;;;;;;10.70;73.34;94580.50;5019655;28;20033;-89
2022/04/16 00:48:51;;;;;;;6.05;2.60;;;;;;;10.73;73.62;94582.59;5003889;28;20025;-90
2022/04/16 00:51:16;;;;;;;6.22;2.67;;;;;;;10.68;76.41;94577.34;5019636;28;20026;-90
2022/04/16 00:53:42;;;;;;;5.15;2.65;;;;;;;10.56;77.93;94582.88;5003454;28;20423;-89
2022/04/16 00:56:10;;;;;;;7.40;2.22;;;;;;;10.64;74.03;94579.72;5019844;28;20057;-90
2022/04/16 00:58:38;;;;;;;4.25;2.10;;;;;;;10.51;75.23;94575.78;5030244;28;20090;-90
2022/04/16 01:01:03;;;;;;;7.15;2.42;;;;;;;10.42;79.29;94582.56;5055894;28;20078;-90
2022/04/16 01:03:29;;;;;;;8.00;2.85;;;;;;;10.35;76.02;94572.31;5055853;28;20029;-90
2022/04/16 01:05:55;;;;;;;10.45;2.42;;;;;;;10.48;73.94;94575.50;5025454;28;20055;-90
2022/04/16 01:08:22;;;;;;;5.20;1.70;;;;;;;10.35;74.98;94572.31;5022933;28;20029;-90
2022/04/16 01:10:48;;;;;;;5.57;2.17;;;;;;;10.09;81.70;94574.88;5031070;28;20036;-88
2022/04/16 01:13:15;;;;;;;6.57;2.20;;;;;;;10.01;75.22;94570.19;5031339;28;20037;-90
2022/04/16 01:15:41;;;;;;;6.15;1.98;;;;;;;9.93;83.46;94571.47;5039165;28;20028;-89
2022/04/16 01:18:07;;;;;;;6.53;2.30;;;;;;;9.80;82.16;94571.94;5039232;28;20055;-90
2022/04/16 01:20:35;;;;;;;6.20;2.03;;;;;;;9.67;85.73;94566.13;5038926;28;20086;-91
2022/04/16 01:23:01;;;;;;;4.65;2.08;;;;;;;9.74;78.13;94571.91;5039100;28;20438;-90
2022/04/16 01:25:27;;;;;;;7.65;2.05;;;;;;;9.93;75.70;94574.09;5022526;28;20080;-89
2022/04/16 01:27:56;;;;;;;7.68;2.20;;;;;;;9.82;76.04;94567.25;5039203;28;20067;-89
2022/04/16 01:30:23;;;;;;;7.18;1.70;;;;;;;9.77;76.23;94568.00;5039147;28;20048;-90
2022/04/16 01:32:49;;;;;;;3.95;2.13;;;;;;;9.83;77.17;94566.19;5038870;28;20074;-89
2022/04/16 01:35:16;;;;;;;4.18;1.60;;;;;;;9.69;82.32;94566.66;5039130;28;20036;-89
2022/04/16 01:37:42;;;;;;;8.98;1.98;;;;;;;9.56;84.02;94570.56;5022632;28;20035;-89
2022/04/16 01:40:12;;;;;;;5.03;1.88;;;;;;;9.56;76.69;94564.53;5056750;28;20029;-90
2022/04/16 01:42:38;;;;;;;4.80;1.92;;;;;;;9.61;78.19;94569.75;5022557;28;20438;-90
2022/04/16 01:45:11;;;;;;;3.80;1.90;;;;;;;9.54;82.40;94564.00;5056502;28;20036;-90
2022/04/16 01:47:38;;;;;;;4.38;1.70;;;;;;;9.58;78.31;94573.69;5022704;28;20025;-91
2022/04/16 01:50:09;;;;;;;8.35;2.10;;;;;;;9.60;76.41;94570.81;5038742;28;20024;-90
2022/04/16 01:52:38;;;;;;;5.55;2.00;;;;;;;9.69;76.10;94564.06;5022365;28;20033;-89
2022/04/16 01:55:05;;;;;;;4.85;1.80;;;;;;;9.65;75.33;94570.84;5022662;28;20051;-90
2022/04/16 01:57:30;;;;;;;7.57;2.38;;;;;;;9.53;79.85;94571.03;5022168;28;20031;-89
2022/04/16 01:59:56;;;;;;;5.35;1.77;;;;;;;9.53;78.40;94575.50;5038868;28;20029;-90
2022/04/16 02:02:22;;;;;;;2.85;1.58;;;;;;;9.23;86.56;94575.06;5022425;28;20025;-90
2022/04/16 02:04:47;;;;;;;6.45;2.42;;;;;;;8.96;90.79;94583.03;5022602;28;20031;-89
2022/04/16 02:07:13;;;;;;;6.60;2.30;;;;;;;8.98;92.03;94575.72;5038650;28;20025;-90
2022/04/16 02:09:39;;;;;;;6.97;2.13;;;;;;;8.99;89.48;94574.69;5038543;28;20346;-90
2022/04/16 02:12:05;;;;;;;3.95;2.10;;;;;;;9.00;89.83;94574.44;5022233;28;20119;-90
2022/04/16 02:14:31;;;;;;;6.75;2.17;;;;;;;9.00;87.88;94576.25;5022317;28;20071;-89
2022/04/16 02:16:57;;;;;;;5.32;2.28;;;;;;;9.12;86.53;94579.47;5038492;28;20037;-89
2022/04/16 02:19:23;;;;;;;8.18;2.40;;;;;;;9.15;87.51;94578.19;5022656;28;20025;-90
2022/04/16 02:21:49;;;;;;;8.18;2.95;;;;;;;9.24;90.48;94566.19;5022119;28;20529;-90
2022/04/16 02:24:16;;;;;;;5.78;2.65;;;;;;;9.42;90.39;94562.38;5038501;28;20476;-90
2022/04/16 02:26:43;;;;;;;6.75;1.92;;;;;;;9.36;89.31;94560.78;5038544;28;20346;-90
2022/04/16 02:29:10;;;;;;;7.20;2.35;;;;;;;9.29;87.00;94566.25;5022589;28;20350;-90
2022/04/16 02:31:37;;;;;;;6.00;2.50;;;;;;;9.40;85.43;94561.06;5038728;28;20194;-91
2022/04/16 02:34:07;;;;;;;5.75;2.10;;;;;;;9.51;83.64;94559.28;5022151;28;20025;-89
2022/04/16 02:36:36;;;;;;;9.85;3.13;;;;;;;9.59;83.10;94546.50;5022338;28;20025;-91
2022/04/16 02:39:02;;;;;;;7.47;2.17;;;;;;;9.65;83.05;94551.72;5022094;28;20115;-89
2022/04/16 02:41:27;;;;;;;4.78;2.22;;;;;;;9.59;81.29;94554.34;5022431;28;20418;-89
2022/04/16 02:43:58;;;;;;;5.20;2.13;;;;;;;9.49;82.64;94551.69;5022239;28;20021;-90
2022/04/16 02:49:08;;;;;;;7.53;2.28;;;;;;;9.30;79.18;94548.72;5040821;28;20063;-90
2022/04/16 02:51:34;;;;;;;4.60;1.88;;;;;;;9.26;84.61;94550.25;5025347;28;20025;-89
2022/04/16 02:53:59;;;;;;;5.90;2.45;;;;;;;9.22;81.96;94551.81;5025745;28;20441;-89
2022/04/16 02:56:25;;;;;;;5.82;2.35;;;;;;;9.17;86.30;94550.72;5025580;28;20082;-89
2022/04/16 02:58:50;;;;;;;4.97;2.17;;;;;;;9.11;79.29;94551.75;5025883;28;20358;-91
2022/04/16 03:01:16;;;;;;;7.15;2.53;;;;;;;9.11;76.01;94548.34;5025267;28;20029;-90
2022/04/16 03:04:03;;;;;;;6.80;2.20;;;;;;;9.19;72.32;94555.72;5025268;28;20174;-90
2022/04/16 03:06:29;;;;;;;5.63;2.17;;;;;;;9.18;70.88;94552.34;5041580;28;20021;-89
2022/04/16 03:08:54;;;;;;;4.70;1.70;;;;;;;9.13;71.69;94549.66;5041806;28;20031;-89
2022/04/16 03:11:19;;;;;;;5.03;2.00;;;;;;;9.17;68.88;94547.34;5025324;28;20024;-89
2022/04/16 03:13:46;;;;;;;4.55;2.65;;;;;;;9.23;68.65;94548.16;5025363;28;20028;-89
2022/04/16 03:18:55;;;;;;;4.85;1.70;;;;;;;9.24;62.39;94545.28;5059086;28;20035;-89
2022/04/16 03:21:21;;;;;;;4.32;1.63;;;;;;;9.10;64.90;94539.72;5025092;28;20028;-90
2022/04/16 03:23:47;;;;;;;6.13;2.00;;;;;;;9.12;67.46;94537.66;5033208;28;20421;-90
2022/04/16 03:26:12;;;;;;;4.55;1.90;;;;;;;9.03;64.65;94533.94;5045923;28;20025;-89
2022/04/16 03:28:38;;;;;;;5.07;1.50;;;;;;;9.10;61.12;94537.13;5048566;28;20346;-90
2022/04/16 03:31:04;;;;;;;5.15;1.67;;;;;;;9.19;60.48;94540.03;5032828;28;20017;-90
2022/04/16 03:33:31;;;;;;;2.20;1.50;;;;;;;9.04;60.64;94530.31;5036584;28;20029;-90
2022/04/16 03:35:57;;;;;;;3.55;1.35;;;;;;;9.03;56.86;94533.94;5036755;28;20039;-90
2022/04/16 03:38:22;;;;;;;3.92;1.60;;;;;;;9.13;56.80;94528.00;5033014;28;20029;-90
2022/04/16 03:40:48;;;;;;;4.25;1.70;;;;;;;9.16;57.79;94537.94;5025774;28;20067;-90
2022/04/16 03:43:13;;;;;;;2.30;1.40;;;;;;;9.26;56.17;94537.19;5054527;28;20029;-89
2022/04/16 03:45:39;;;;;;;3.20;1.80;;;;;;;9.31;55.14;94534.59;5040878;28;20028;-89
2022/04/16 03:48:07;;;;;;;3.47;1.50;;;;;;;9.28;54.77;94535.09;5057569;28;20028;-90
2022/04/16 03:50:33;;;;;;;5.15;1.75;;;;;;;9.30;56.63;94530.41;5030082;28;20060;-90
2022/04/16 03:52:59;;;;;;;4.47;1.27;;;;;;;9.21;57.52;94530.09;5041032;28;20033;-90
2022/04/16 04:00:58;;;;;;;3.30;1.63;;;;;;;9.24;58.86;94531.44;5042729;28;20036;-90
2022/04/16 04:03:25;;;;;;;6.35;2.03;;;;;;;9.10;66.50;94531.09;5040676;28;20024;-90
2022/04/16 04:05:53;;;;;;;4.65;1.77;;;;;;;8.93;66.03;94533.88;5058113;28;20029;-89
2022/04/16 04:08:19;;;;;;;4.60;1.60;;;;;;;8.84;66.12;94533.56;5057206;28;20434;-90
2022/04/16 04:10:46;;;;;;;5.90;1.92;;;;;;;8.79;67.18;94536.94;5040744;28;20025;-88
2022/04/16 04:13:13;;;;;;;5.47;1.92;;;;;;;8.71;67.52;94535.56;5026457;28;20029;-88
2022/04/16 04:15:39;;;;;;;7.22;2.28;;;;;;;8.68;69.33;94532.66;5024108;28;20067;-89
2022/04/16 04:18:04;;;;;;;6.72;2.10;;;;;;;8.62;80.44;94548.31;5024052;28;20039;-89
2022/04/16 04:20:30;;;;;;;8.30;2.30;;;;;;;8.55;81.59;94539.88;5024236;28;20119;-89
2022/04/16 04:22:56;;;;;;;4.43;2.53;;;;;;;8.50;81.32;94545.09;5024061;28;20029;-89
2022/04/16 04:25:21;;;;;;;5.60;2.25;;;;;;;8.53;83.86;94551.63;5023901;28;20123;-90
2022/04/16 04:27:47;;;;;;;4.50;2.38;;;;;;;8.66;81.59;94542.59;5039835;28;20505;-90
2022/04/16 04:30:13;;;;;;;5.97;2.55;;;;;;;8.65;82.02;94541.00;5023575;28;20056;-89
2022/04/16 04:32:38;;;;;;;2.60;1.35;;;;;;;8.71;65.80;94547.84;5040107;28;20064;-90
2022/04/16 04:35:05;;;;;;;3.08;1.58;;;;;;;8.93;61.40;94541.72;5039799;28;20430;-90
2022/04/16 04:37:30;;;;;;;1.73;1.20;;;;;;;9.04;61.63;94541.53;5039650;28;20029;-91
2022/04/16 04:39:56;;;;;;;3.80;1.30;;;;;;;9.01;61.92;94546.47;5023070;28;20461;-89
2022/04/16 04:42:28;;;;;;;4.45;1.45;;;;;;;9.23;58.35;94543.72;5023603;28;20028;-90
2022/04/16 04:44:54;;;;;;;7.32;1.50;;;;;;;9.24;59.41;94541.88;5023318;28;20029;-89
2022/04/16 04:47:20;;;;;;;5.47;1.80;;;;;;;9.04;63.02;94546.75;5023543;28;20338;-90
2022/04/16 04:49:46;;;;;;;3.03;1.17;;;;;;;8.96;64.46;94547.22;5039601;28;20032;-89
2022/04/16 04:52:24;;;;;;;2.15;1.17;;;;;;;8.88;66.21;94545.09;5039675;28;20029;-90
2022/04/16 04:54:50;;;;;;;5.15;1.67;;;;;;;8.79;65.77;94544.78;5039582;28;20048;-90
2022/04/16 04:57:15;;;;;;;7.70;1.38;;;;;;;8.77;64.38;94545.00;5023382;28;20025;-89
2022/04/16 04:59:41;;;;;;;1.67;1.02;;;;;;;9.01;61.37;94543.84;5039748;28;20114;-89
2022/04/16 05:02:06;;;;;;;5.47;1.13;;;;;;;8.91;62.05;94553.22;5023364;28;20509;-90
2022/04/16 05:04:32;;;;;;;5.72;1.40;;;;;;;8.84;67.02;94552.63;5023073;28;20075;-90
2022/04/16 05:06:57;;;;;;;4.45;1.20;;;;;;;8.97;63.47;94545.41;5056995;28;20053;-90
2022/04/16 05:09:24;;;;;;;4.78;1.80;;;;;;;9.11;63.76;94545.72;5039254;28;20095;-88
2022/04/16 05:11:49;;;;;;;4.10;1.58;;;;;;;9.13;65.67;94549.66;5039722;28;20111;-89
2022/04/16 05:14:15;;;;;;;5.28;1.90;;;;;;;9.30;68.02;94556.56;5039090;28;20059;-89
2022/04/16 05:16:41;;;;;;;3.50;1.73;;;;;;;9.37;64.76;94557.13;5039568;28;20128;-89
2022/04/16 05:19:06;;;;;;;2.78;1.20;;;;;;;9.32;65.43;94557.88;5023156;28;20120;-91
2022/04/16 05:21:32;;;;;;;3.78;1.60;;;;;;;9.48;63.04;94555.34;5022807;28;20119;-90
2022/04/16 05:23:57;;;;;;;4.72;1.50;;;;;;;9.60;63.12;94548.06;5022884;28;20032;-89
2022/04/16 05:26:24;;;;;;;3.60;1.60;;;;;;;9.74;61.64;94545.75;5022946;28;20032;-90
2022/04/16 05:28:50;;;;;;;8.00;1.90;;;;;;;9.96;61.63;94544.78;5056715;28;20498;-89
2022/04/16 05:31:19;;;;;;;3.97;1.45;;;;;;;9.95;73.51;94552.88;5056958;28;20108;-90
2022/04/16 05:36:28;;;;;;;7.90;1.42;;;;;;;10.18;68.08;94557.63;5041523;28;20090;-91
2022/04/16 05:38:53;;;;;;;3.47;1.20;;;;;;;10.28;65.50;94563.94;5038818;28;20033;-91
2022/04/16 05:41:19;;;;;;;4.30;1.25;;;;;;;10.32;63.45;94555.28;5022509;28;20415;-90
2022/04/16 05:47:06;;;;;;;3.75;2.03;;;;;;;10.46;61.97;94567.91;5056286;28;20462;-90
2022/04/16 05:49:31;;;;;;;2.67;1.33;;;;;;;10.48;68.24;94563.22;5025294;28;20033;-90
2022/04/16 05:51:57;;;;;;;3.22;1.40;;;;;;;10.62;64.87;94560.84;5022924;28;20025;-91
2022/04/16 05:54:22;;;;;;;2.50;1.42;;;;;;;10.79;64.93;94565.81;5022576;28;20086;-90
2022/04/16 05:56:48;;;;;;;6.53;1.65;;;;;;;10.91;61.53;94570.03;5022473;28;20142;-91
2022/04/16 05:59:13;;;;;;;6.43;1.63;;;;;;;11.01;61.03;94570.00;5039004;28;20083;-91
2022/04/16 06:01:39;;;;;;;5.80;1.50;;;;;;;11.15;60.20;94570.25;5038777;28;20025;-90
2022/04/16 06:04:04;;;;;;;2.83;1.52;;;;;;;11.32;59.11;94568.09;5047067;28;20427;-89
2022/04/16 06:06:29;;;;;;;3.45;1.50;;;;;;;11.44;59.00;94575.66;5022574;28;20033;-90
2022/04/16 06:08:55;;;;;;;3.92;1.63;;;;;;;11.61;59.58;94579.81;5038506;28;20066;-90
2022/04/16 06:11:21;;;;;;;2.80;1.42;;;;;;;11.64;59.28;94579.28;5022369;28;20121;-90
2022/04/16 06:13:46;;;;;;;4.40;1.48;;;;;;;11.55;60.74;94575.63;5050026;28;20493;-91
2022/04/16 06:16:12;;;;;;;3.42;1.40;;;;;;;11.65;59.00;94572.19;5054945;28;20123;-90
2022/04/16 06:18:38;;;;;;;3.10;1.30;;;;;;;11.60;59.21;94578.25;5041844;28;20024;-90
2022/04/16 06:21:03;;;;;;;2.88;1.23;;;;;;;11.81;57.86;94583.41;5022102;28;20415;-90
2022/04/16 06:23:31;;;;;;;5.38;1.38;;;;;;;11.93;58.57;94573.41;5022288;28;20025;-90
2022/04/16 06:25:57;;;;;;;6.63;1.73;;;;;;;11.88;59.60;94582.06;5025150;28;20029;-90
2022/04/16 06:28:22;;;;;;;5.20;1.30;;;;;;;11.63;60.75;94575.09;5026387;28;20422;-90
2022/04/16 06:30:48;;;;;;;6.10;2.10;;;;;;;12.05;58.16;94572.28;5026031;28;20032;-89
2022/04/16 06:33:13;;;;;;;6.32;2.10;;;;;;;12.22;57.47;94582.44;5025855;28;20029;-90
2022/04/16 06:35:39;;;;;;;4.97;1.02;;;;;;;12.06;59.86;94574.66;5025754;28;20029;-89
2022/04/16 06:38:04;;;;;;;4.07;1.73;;;;;;;12.14;61.21;94574.09;5025926;28;20036;-90
2022/04/16 06:40:30;;;;;;;2.38;1.20;;;;;;;12.27;61.59;94577.97;5042262;28;20029;-91
2022/04/16 06:42:55;;;;;;;4.35;1.63;;;;;;;12.32;60.37;94574.50;5025651;28;20024;-89
2022/04/16 06:45:21;;;;;;;5.40;2.05;;;;;;;12.59;58.54;94581.94;5042087;28;20036;-90
2022/04/16 06:47:46;;;;;;;6.65;1.63;;;;;;;12.89;59.59;94579.34;5041981;28;20029;-89
2022/04/16 06:50:11;;;;;;;3.78;1.70;;;;;;;12.93;61.82;94572.47;5042340;28;20027;-90
2022/04/16 06:52:37;;;;;;;5.47;1.63;;;;;;;13.03;63.02;94571.59;5041953;28;20025;-89
2022/04/16 06:55:04;;;;;;;9.13;1.40;;;;;;;13.04;60.83;94569.75;5042111;28;20032;-88
2022/04/16 06:57:29;;;;;;;2.80;1.30;;;;;;;13.30;60.92;94570.28;5041823;28;20029;-88
2022/04/16 06:59:55;;;;;;;7.18;1.35;;;;;;;13.46;62.37;94565.69;5041594;28;20036;-88
2022/04/16 07:02:20;;;;;;;5.03;1.38;;;;;;;13.73;62.72;94568.81;5025375;28;20029;-88
2022/04/16 07:04:46;;;;;;;3.22;1.60;;;;;;;14.08;56.96;94572.06;5041705;28;20151;-89
2022/04/16 07:07:11;;;;;;;3.58;1.50;;;;;;;14.42;54.22;94560.53;5041891;28;20060;-89
2022/04/16 07:09:40;;;;;;;14.05;3.25;;;;;;;14.69;52.64;94564.34;5025121;28;20029;-88
2022/04/16 07:12:12;;;;;;;5.70;2.05;;;;;;;14.84;51.27;94563.31;5041980;28;20029;-88
2022/04/16 07:14:43;;;;;;;5.03;1.90;;;;;;;14.80;52.00;94568.41;5041862;28;20426;-89
2022/04/16 07:17:08;;;;;;;2.80;1.52;;;;;;;15.15;51.12;94572.59;5021491;28;20323;-88
2022/04/16 07:19:34;;;;;;;31.02;6.65;;;;;;;14.92;48.60;94565.31;5021641;28;20026;-87
2022/04/16 07:22:00;;;;;;;322.80;44.95;;;;;;;14.90;50.00;94556.91;5037906;28;20112;-89
2022/04/16 07:24:26;;;;;;;606.55;99.20;;;;;;;14.49;55.31;94554.88;5021284;28;20111;-88
2022/04/16 07:26:54;;;;;;;25.42;5.80;;;;;;;14.76;51.64;94553.44;5021500;28;20021;-88
2022/04/16 07:29:23;;;;;;;450.58;58.40;;;;;;;14.67;54.42;94550.66;5038239;28;20033;-89
2022/04/16 07:31:49;;;;;;;58.97;8.10;;;;;;;14.87;47.61;94548.78;5037604;28;20021;-87
2022/04/16 07:34:15;;;;;;;58.80;10.40;;;;;;;15.06;49.32;94554.00;5037960;28;20113;-91
2022/04/16 07:36:44;;;;;;;121.28;17.83;;;;;;;15.17;50.70;94554.59;5020867;28;20033;-92
2022/04/16 07:39:11;;;;;;;163.82;25.00;;;;;;;15.33;51.77;94549.84;5037522;28;20034;-91
2022/04/16 07:41:36;;;;;;;38.38;5.65;;;;;;;15.63;50.05;94551.09;5020989;28;20029;-90
2022/04/16 07:44:05;;;;;;;48.50;6.95;;;;;;;15.95;48.61;94559.22;5021657;28;20116;-89
2022/04/16 07:46:31;;;;;;;505.83;73.93;;;;;;;15.68;51.78;94553.66;5021177;28;20026;-88
2022/04/16 07:48:57;;;;;;;105.30;17.92;;;;;;;15.76;52.48;94554.81;5004622;28;20032;-89
2022/04/16 07:51:23;;;;;;;11.35;2.97;;;;;;;16.11;50.38;94557.03;5005366;28;20055;-90
2022/04/16 07:53:49;;;;;;;6.88;2.00;;;;;;;16.07;46.42;94556.06;5037329;28;20061;-91
2022/04/16 07:56:14;;;;;;;7.95;1.63;;;;;;;15.95;46.11;94554.72;5038251;28;20053;-89
2022/04/16 07:58:39;;;;;;;3.80;1.77;;;;;;;15.93;46.13;94558.72;5020859;28;20117;-89
2022/04/16 08:01:05;;;;;;;8.85;2.38;;;;;;;15.68;48.85;94552.84;5021016;28;20037;-90
2022/04/16 08:03:30;;;;;;;4.72;1.90;;;;;;;15.73;49.25;94554.63;5037121;28;20054;-89
2022/04/16 08:05:56;;;;;;;5.88;1.67;;;;;;;15.77;47.17;94550.28;5020753;28;20029;-91
2022/04/16 08:08:22;;;;;;;11.60;3.95;;;;;;;16.01;48.98;94551.97;5037093;28;20319;-90
2022/04/16 08:10:51;;;;;;;20.83;3.90;;;;;;;16.07;48.06;94556.06;5020748;28;20104;-91
2022/04/16 08:13:18;;;;;;;15.07;4.50;;;;;;;16.11;49.07;94538.53;5020625;28;20025;-91
2022/04/16 08:15:45;;;;;;;5.63;2.60;;;;;;;16.28;49.09;94542.41;5004412;28;20442;-91
2022/04/16 08:18:10;;;;;;;6.28;2.58;;;;;;;15.97;49.21;94543.84;5036777;28;20029;-90
2022/04/16 08:20:36;;;;;;;14.88;4.45;;;;;;;16.35;49.58;94543.56;5020407;28;20063;-90
2022/04/16 08:23:05;;;;;;;29.27;4.80;;;;;;;16.25;51.71;94549.06;5020905;28;20029;-91
2022/04/16 08:27:56;;;;;;;9.63;3.35;;;;;;;16.36;51.41;94547.75;5020293;28;20033;-91
2022/04/16 08:30:22;;;;;;;5.63;2.05;;;;;;;16.64;51.17;94552.16;5020640;28;20375;-91
2022/04/16 08:32:47;;;;;;;25.77;5.72;;;;;;;16.29;56.80;94549.25;5036626;28;20060;-92
2022/04/16 08:35:14;;;;;;;16.95;4.32;;;;;;;16.40;52.84;94548.72;5020222;28;20035;-91
2022/04/16 08:37:40;;;;;;;11.18;3.80;;;;;;;16.43;57.12;94547.34;5020177;28;20345;-90
2022/04/16 08:40:07;;;;;;;7.05;2.92;;;;;;;16.67;52.75;94554.97;5037493;28;20044;-92
2022/04/16 08:42:36;;;;;;;12.80;2.63;;;;;;;16.51;51.19;94562.50;5019992;28;20029;-91
2022/04/16 08:45:04;;;;;;;6.45;3.03;;;;;;;16.64;55.11;94557.44;5020153;28;20466;-90
2022/04/16 08:47:29;;;;;;;107.07;13.60;;;;;;;16.70;54.61;94560.75;5003221;28;20026;-92
2022/04/16 08:49:55;;;;;;;37.33;5.68;;;;;;;16.78;55.05;94558.16;5004063;28;20029;-91
2022/04/16 08:52:23;;;;;;;4.50;2.58;;;;;;;16.20;48.96;94552.59;5020497;28;20442;-90
2022/04/16 08:54:49;;;;;;;5.20;1.90;;;;;;;16.60;49.38;94548.53;5036438;28;20116;-91
2022/04/16 08:57:15;;;;;;;7.03;2.17;;;;;;;16.47;48.74;94547.53;5019949;28;20124;-89
2022/04/16 08:59:51;;;;;;;40.58;6.65;;;;;;;16.58;55.02;94546.22;5003941;28;20075;-91
2022/04/16 09:02:18;;;;;;;9.23;3.60;;;;;;;16.86;50.23;94546.09;5003891;28;20110;-92
2022/04/16 09:04:44;;;;;;;12.48;3.75;;;;;;;16.89;51.80;94545.47;5035990;28;20462;-90
2022/04/16 09:07:10;;;;;;;10.68;4.50;;;;;;;16.62;51.87;94544.53;5019883;28;20029;-92
2022/04/16 09:09:36;;;;;;;10.95;4.78;;;;;;;16.66;53.42;94542.06;5004045;28;20098;-91
2022/04/16 09:12:01;;;;;;;11.32;4.70;;;;;;;16.85;54.84;94538.44;5020157;28;20026;-92
2022/04/16 09:14:37;;;;;;;9.20;4.57;;;;;;;17.02;53.34;94535.91;5019738;28;20154;-90
2022/04/16 09:17:23;;;;;;;50.22;9.20;;;;;;;17.24;55.30;94539.59;5019727;28;20037;-92
2022/04/16 09:19:54;;;;;;;11.18;3.75;;;;;;;17.41;53.28;94551.34;5002880;28;20496;-92
2022/04/16 09:22:33;;;;;;;9.93;3.80;;;;;;;17.12;52.49;94555.28;5003442;28;20127;-91
2022/04/16 09:24:59;;;;;;;8.45;4.30;;;;;;;16.70;54.10;94545.66;5019729;28;20025;-90
2022/04/16 09:27:24;;;;;;;12.77;4.63;;;;;;;16.63;56.65;94550.59;5019443;28;20029;-92
2022/04/16 09:29:56;;;;;;;84.30;13.50;;;;;;;16.79;54.95;94551.81;5019608;28;20029;-90
2022/04/16 09:32:24;;;;;;;7.53;3.90;;;;;;;17.18;53.39;94554.03;5019470;28;20419;-92
2022/04/16 09:35:05;;;;;;;23.50;6.40;;;;;;;17.15;52.45;94554.66;5035820;28;20025;-90
2022/04/16 09:37:33;;;;;;;6.25;3.50;;;;;;;17.48;55.32;94544.53;5035706;28;20038;-92
2022/04/16 09:40:09;;;;;;;8.80;3.80;;;;;;;17.27;55.32;94540.84;5019326;28;20029;-91
2022/04/16 09:42:34;;;;;;;7.15;3.80;;;;;;;17.57;59.12;94539.25;5003302;28;20454;-90
2022/04/16 09:45:02;;;;;;;22.02;4.50;;;;;;;17.89;55.82;94533.88;5019607;28;20132;-90
2022/04/16 09:47:28;;;;;;;38.38;7.28;;;;;;;17.91;55.18;94529.81;5019206;28;20025;-92
2022/04/16 09:49:55;;;;;;;7.28;3.05;;;;;;;17.90;52.98;94533.56;5002879;28;20342;-93
2022/04/16 09:52:23;;;;;;;32.05;5.97;;;;;;;17.66;55.86;94531.31;5022424;28;20358;-92
2022/04/16 09:54:50;;;;;;;18.13;4.43;;;;;;;17.85;54.28;94528.41;5022483;28;20029;-91
2022/04/16 09:57:21;;;;;;;11.88;3.55;;;;;;;17.96;54.59;94534.19;5022214;28;20366;-92
2022/04/16 09:59:50;;;;;;;16.98;3.90;;;;;;;18.08;54.00;94530.97;5025301;28;20310;-90
2022/04/16 10:02:16;;;;;;;8.35;4.07;;;;;;;17.59;53.10;94513.22;5026431;28;20341;-90
2022/04/16 10:04:42;;;;;;;9.77;4.15;;;;;;;17.80;54.25;94515.31;5026690;28;20078;-90
2022/04/16 10:07:07;;;;;;;9.63;4.45;;;;;;;17.84;54.86;94515.47;5026529;28;20128;-89
2022/04/16 10:09:35;;;;;;;10.65;5.03;;;;;;;17.42;57.12;94513.19;5043211;28;20407;-92
2022/04/16 10:14:46;;;;;;;10.13;4.10;;;;;;;17.96;54.96;94515.63;5045377;28;20029;-90
2022/04/16 10:17:28;;;;;;;9.20;3.78;;;;;;;17.82;56.23;94507.84;5042813;28;20343;-91
2022/04/16 10:19:54;;;;;;;11.90;4.50;;;;;;;17.75;56.36;94505.63;5042496;28;20036;-91
2022/04/16 10:22:28;;;;;;;12.55;5.22;;;;;;;17.38;55.22;94505.06;5026432;28;20025;-90
2022/04/16 10:24:57;;;;;;;17.85;4.60;;;;;;;17.52;57.96;94507.63;5026119;28;20025;-91
2022/04/16 10:27:27;;;;;;;15.80;4.57;;;;;;;17.77;56.94;94510.59;5042723;28;20032;-91
2022/04/16 10:29:54;;;;;;;10.52;4.40;;;;;;;17.93;56.87;94511.75;5026147;28;20119;-90
2022/04/16 10:32:20;;;;;;;13.07;4.90;;;;;;;17.89;58.29;94516.09;5042583;28;20063;-89
2022/04/16 10:34:46;;;;;;;8.68;4.22;;;;;;;17.72;57.23;94516.84;5026765;28;20117;-90
2022/04/16 10:37:24;;;;;;;9.80;4.32;;;;;;;17.69;57.70;94512.16;5026174;28;20111;-92
2022/04/16 10:39:53;;;;;;;11.13;5.18;;;;;;;17.83;59.26;94509.38;5026285;28;20032;-92
2022/04/16 10:42:32;;;;;;;10.95;4.80;;;;;;;17.74;57.00;94505.94;5025995;28;20029;-91
2022/04/16 10:45:08;;;;;;;11.77;5.43;;;;;;;17.42;60.28;94516.59;5026058;28;20021;-92
2022/04/16 10:47:37;;;;;;;16.90;5.95;;;;;;;17.74;59.23;94509.38;5041872;28;20115;-90
2022/04/16 10:50:08;;;;;;;17.38;6.20;;;;;;;17.48;61.36;94501.34;5025646;28;20035;-90
2022/04/16 10:52:34;;;;;;;14.48;6.45;;;;;;;17.55;59.66;94485.81;5025568;28;20179;-90
2022/04/16 10:55:06;;;;;;;13.52;6.78;;;;;;;17.42;59.35;94495.41;5042091;28;20116;-91
2022/04/16 10:57:32;;;;;;;14.68;6.00;;;;;;;17.90;60.50;94500.97;5025268;28;20438;-90
2022/04/16 10:59:58;;;;;;;15.80;6.03;;;;;;;17.63;63.54;94495.63;5041803;28;20054;-91
2022/04/16 11:02:26;;;;;;;11.57;6.32;;;;;;;17.98;60.75;94486.19;5024862;28;20035;-90
2022/04/16 11:05:00;;;;;;;17.23;6.53;;;;;;;17.90;63.48;94493.78;5041615;28;20051;-89
2022/04/16 11:07:29;;;;;;;14.70;7.75;;;;;;;17.67;63.19;94488.63;5041363;28;20337;-89
2022/04/16 11:09:56;;;;;;;14.73;7.07;;;;;;;17.62;62.63;94491.41;5058524;28;20029;-91
2022/04/16 11:12:23;;;;;;;13.73;6.78;;;;;;;17.76;66.89;94493.16;5034854;28;20029;-91
2022/04/16 11:14:52;;;;;;;14.27;6.47;;;;;;;18.25;63.31;94498.38;5048836;28;20457;-91
2022/04/16 11:17:19;;;;;;;15.98;7.30;;;;;;;18.02;60.58;94497.72;5029750;28;20033;-92
2022/04/16 11:20:05;;;;;;;15.55;7.95;;;;;;;17.61;62.21;94486.44;5012346;28;20339;-91
2022/04/16 11:22:32;;;;;;;27.77;8.30;;;;;;;17.37;62.87;94482.31;5020990;28;20045;-90
2022/04/16 11:24:58;;;;;;;14.77;7.93;;;;;;;17.74;62.80;94493.47;5022001;28;20029;-90
2022/04/16 11:36:00;;;;;;;13.18;6.97;;;;;;;17.83;63.35;94474.16;5053497;28;20039;-90
2022/04/16 11:38:32;;;;;;;16.92;6.85;;;;;;;18.53;70.18;94473.38;5024610;28;20033;-89
2022/04/16 11:40:59;;;;;;;17.05;7.90;;;;;;;18.64;70.21;94490.50;5040852;28;20350;-89
2022/04/16 11:43:25;;;;;;;15.55;8.02;;;;;;;18.37;60.92;94469.34;5024805;28;20457;-91
2022/04/16 11:45:51;;;;;;;16.95;8.63;;;;;;;18.49;62.22;94475.88;5040668;28;20037;-89
2022/04/16 11:48:17;;;;;;;19.77;7.72;;;;;;;18.81;65.73;94486.28;5041408;28;20033;-90
2022/04/16 11:50:43;;;;;;;18.83;7.55;;;;;;;18.82;61.33;94485.19;5024772;28;20036;-92
2022/04/16 11:53:12;;;;;;;13.88;6.43;;;;;;;19.09;63.55;94480.59;5024453;28;20029;-90
2022/04/16 11:55:48;;;;;;;19.50;8.32;;;;;;;19.03;60.71;94488.72;5040806;28;20029;-90
2022/04/16 11:58:14;;;;;;;16.20;7.32;;;;;;;19.52;63.80;94492.13;5040790;28;20021;-90
2022/04/16 12:00:55;;;;;;;15.38;7.20;;;;;;;19.74;62.10;94481.19;5040751;28;20111;-90
2022/04/16 12:03:22;;;;;;;14.45;7.28;;;;;;;19.49;58.63;94474.91;5024980;28;20036;-90